createdAt,value
2017-09-13T00:00:56.409Z,13.70
2017-09-13T00:01:56.388Z,13.61
2017-09-13T00:02:56.437Z,13.55
2017-09-13T00:03:56.486Z,13.65
2017-09-13T00:04:56.535Z,13.55
2017-09-13T00:05:56.648Z,13.58
2017-09-13T00:06:56.631Z,13.54
2017-09-13T00:07:56.680Z,13.49
2017-09-13T00:08:56.726Z,13.47
2017-09-13T00:09:56.775Z,13.36
2017-09-13T00:10:56.891Z,13.43
2017-09-13T00:11:56.871Z,13.43
2017-09-13T00:12:56.920Z,13.38
2017-09-13T00:13:56.969Z,13.30
2017-09-13T00:14:57.018Z,13.15
2017-09-13T00:15:57.152Z,13.06
2017-09-13T00:16:57.113Z,13.04
2017-09-13T00:17:57.165Z,12.96
2017-09-13T00:18:57.212Z,12.93
2017-09-13T00:19:57.260Z,13.02
2017-09-13T00:20:57.376Z,12.85
2017-09-13T00:21:57.419Z,12.79
2017-09-13T00:22:57.405Z,12.71
2017-09-13T00:23:57.451Z,12.60
2017-09-13T00:24:57.501Z,12.51
2017-09-13T00:25:57.547Z,12.54
2017-09-13T00:26:57.660Z,12.44
2017-09-13T00:27:57.651Z,12.42
2017-09-13T00:28:57.694Z,12.37
2017-09-13T00:29:57.741Z,12.24
2017-09-13T00:30:57.793Z,12.21
2017-09-13T00:31:57.903Z,12.19
2017-09-13T00:32:57.885Z,12.13
2017-09-13T00:33:57.934Z,12.05
2017-09-13T00:34:57.984Z,11.96
2017-09-13T00:35:58.030Z,11.99
2017-09-13T00:36:58.161Z,11.90
2017-09-13T00:37:58.125Z,11.82
2017-09-13T00:38:58.174Z,11.72
2017-09-13T00:39:58.224Z,11.83
2017-09-13T00:40:58.273Z,11.80
2017-09-13T00:41:58.398Z,11.74
2017-09-13T00:42:58.365Z,11.71
2017-09-13T00:43:58.414Z,11.74
2017-09-13T00:44:58.463Z,11.59
2017-09-13T00:45:58.512Z,11.54
2017-09-13T00:46:58.845Z,11.71
2017-09-13T00:48:01.989Z,11.56
2017-09-13T00:49:01.293Z,11.62
2017-09-13T00:50:01.345Z,11.59
2017-09-13T00:51:01.331Z,11.62
2017-09-13T00:52:01.417Z,11.65
2017-09-13T00:53:02.966Z,11.56
2017-09-13T00:54:01.394Z,11.56
2017-09-13T00:55:00.668Z,11.44
2017-09-13T00:55:59.737Z,11.47
2017-09-13T00:56:59.036Z,11.43
2017-09-13T00:57:59.150Z,11.25
2017-09-13T00:58:59.135Z,11.34
2017-09-13T00:59:59.181Z,11.32
2017-09-13T01:00:59.228Z,11.36
2017-09-13T01:01:59.276Z,11.38
2017-09-13T01:02:59.387Z,11.36
2017-09-13T01:03:59.685Z,11.39
2017-09-13T01:05:01.938Z,11.31
2017-09-13T01:05:59.531Z,11.29
2017-09-13T01:07:00.449Z,11.35
2017-09-13T01:08:00.756Z,11.34
2017-09-13T01:08:59.612Z,11.47
2017-09-13T01:10:03.684Z,11.61
2017-09-13T01:11:01.557Z,11.85
2017-09-13T01:12:00.127Z,12.24
2017-09-13T01:12:59.988Z,12.42
2017-09-13T01:14:00.546Z,12.82
2017-09-13T01:15:03.765Z,13.15
2017-09-13T01:16:00.000Z,13.40
2017-09-13T01:17:00.068Z,13.52
2017-09-13T01:18:00.598Z,13.59
2017-09-13T01:19:00.179Z,13.56
2017-09-13T01:20:00.185Z,13.55
2017-09-13T01:21:00.636Z,13.52
2017-09-13T01:22:00.295Z,13.47
2017-09-13T01:23:02.949Z,13.44
2017-09-13T01:24:00.419Z,13.59
2017-09-13T01:25:00.373Z,13.63
2017-09-13T01:26:04.562Z,13.76
2017-09-13T01:27:00.713Z,13.69
2017-09-13T01:28:00.757Z,13.76
2017-09-13T01:29:01.115Z,13.84
2017-09-13T01:30:00.945Z,13.81
2017-09-13T01:31:00.999Z,13.81
2017-09-13T01:32:00.713Z,13.89
2017-09-13T01:33:00.761Z,13.94
2017-09-13T01:34:01.167Z,13.94
2017-09-13T01:35:02.941Z,14.01
2017-09-13T01:36:01.772Z,14.01
2017-09-13T01:37:01.474Z,13.98
2017-09-13T01:38:01.409Z,14.10
2017-09-13T01:39:01.113Z,14.14
2017-09-13T01:40:01.451Z,14.16
2017-09-13T01:41:01.225Z,14.32
2017-09-13T01:42:01.772Z,14.29
2017-09-13T01:43:02.622Z,14.29
2017-09-13T01:44:03.006Z,14.28
2017-09-13T01:45:01.983Z,14.25
2017-09-13T01:46:03.898Z,14.24
2017-09-13T01:47:02.054Z,14.13
2017-09-13T01:48:01.481Z,14.16
2017-09-13T01:49:02.129Z,14.02
2017-09-13T01:50:02.090Z,14.07
2017-09-13T01:51:02.291Z,13.98
2017-09-13T01:52:01.675Z,14.02
2017-09-13T01:53:02.094Z,13.96
2017-09-13T01:54:01.855Z,13.95
2017-09-13T01:55:01.822Z,14.01
2017-09-13T01:56:01.868Z,13.89
2017-09-13T01:57:01.920Z,13.84
2017-09-13T01:58:01.967Z,13.79
2017-09-13T01:59:02.079Z,13.62
2017-09-13T02:00:02.062Z,13.49
2017-09-13T02:01:02.111Z,13.52
2017-09-13T02:02:02.157Z,13.41
2017-09-13T02:03:02.209Z,13.36
2017-09-13T02:04:02.337Z,13.30
2017-09-13T02:05:02.306Z,13.21
2017-09-13T02:06:02.351Z,13.21
2017-09-13T02:07:02.400Z,13.11
2017-09-13T02:08:02.449Z,13.11
2017-09-13T02:09:02.562Z,13.14
2017-09-13T02:10:02.544Z,13.07
2017-09-13T02:11:02.593Z,13.02
2017-09-13T02:12:02.645Z,12.97
2017-09-13T02:13:02.691Z,13.00
2017-09-13T02:14:02.823Z,12.78
2017-09-13T02:15:02.787Z,12.66
2017-09-13T02:16:02.836Z,12.52
2017-09-13T02:17:02.885Z,12.41
2017-09-13T02:18:02.932Z,12.29
2017-09-13T02:19:03.063Z,12.15
2017-09-13T02:20:03.028Z,12.08
2017-09-13T02:21:03.077Z,12.08
2017-09-13T02:22:03.125Z,12.13
2017-09-13T02:23:03.177Z,12.11
2017-09-13T02:24:03.308Z,12.24
2017-09-13T02:25:03.268Z,12.31
2017-09-13T02:26:03.316Z,12.41
2017-09-13T02:27:03.371Z,12.49
2017-09-13T02:28:03.411Z,12.69
2017-09-13T02:29:03.535Z,12.81
2017-09-13T02:30:03.511Z,12.92
2017-09-13T02:31:03.557Z,13.15
2017-09-13T02:32:03.605Z,13.22
2017-09-13T02:33:03.652Z,13.17
2017-09-13T02:34:03.783Z,13.21
2017-09-13T02:35:03.748Z,13.22
2017-09-13T02:36:03.796Z,13.55
2017-09-13T02:37:03.843Z,13.59
2017-09-13T02:38:03.892Z,13.54
2017-09-13T02:39:04.019Z,13.46
2017-09-13T02:40:03.987Z,13.59
2017-09-13T02:41:04.037Z,13.74
2017-09-13T02:42:04.086Z,13.67
2017-09-13T02:43:04.132Z,13.67
2017-09-13T02:44:04.789Z,13.84
2017-09-13T02:45:04.227Z,13.88
2017-09-13T02:46:04.274Z,13.87
2017-09-13T02:47:04.326Z,13.67
2017-09-13T02:48:04.373Z,13.58
2017-09-13T02:49:04.421Z,13.62
2017-09-13T02:50:04.531Z,13.56
2017-09-13T02:51:04.548Z,13.55
2017-09-13T02:52:04.563Z,13.56
2017-09-13T02:53:04.612Z,13.52
2017-09-13T02:54:04.658Z,13.46
2017-09-13T02:55:04.774Z,13.38
2017-09-13T02:56:04.757Z,13.22
2017-09-13T02:57:04.805Z,13.24
2017-09-13T02:58:04.863Z,13.21
2017-09-13T02:59:04.911Z,13.47
2017-09-13T03:00:05.032Z,13.49
2017-09-13T03:01:04.997Z,13.41
2017-09-13T03:02:05.045Z,13.38
2017-09-13T03:03:05.092Z,13.22
2017-09-13T03:04:05.141Z,13.43
2017-09-13T03:05:05.413Z,13.47
2017-09-13T03:06:05.237Z,13.40
2017-09-13T03:07:05.286Z,13.21
2017-09-13T03:08:05.335Z,13.09
2017-09-13T03:09:05.381Z,13.03
2017-09-13T03:10:05.655Z,12.84
2017-09-13T03:11:05.479Z,12.78
2017-09-13T03:12:05.528Z,12.69
2017-09-13T03:13:05.576Z,12.60
2017-09-13T03:14:05.621Z,12.52
2017-09-13T03:15:05.734Z,12.49
2017-09-13T03:16:05.783Z,12.37
2017-09-13T03:17:05.766Z,12.39
2017-09-13T03:18:05.820Z,12.30
2017-09-13T03:19:05.865Z,12.27
2017-09-13T03:20:05.910Z,12.37
2017-09-13T03:21:06.024Z,12.38
2017-09-13T03:22:06.010Z,12.38
2017-09-13T03:23:06.055Z,12.42
2017-09-13T03:24:06.105Z,12.39
2017-09-13T03:25:06.151Z,12.41
2017-09-13T03:26:06.420Z,12.59
2017-09-13T03:27:06.251Z,12.62
2017-09-13T03:28:06.295Z,12.71
2017-09-13T03:29:06.342Z,12.75
2017-09-13T03:30:06.394Z,12.84
2017-09-13T03:31:06.509Z,12.96
2017-09-13T03:32:06.487Z,12.92
2017-09-13T03:33:06.537Z,13.02
2017-09-13T03:34:06.581Z,13.22
2017-09-13T03:35:06.630Z,13.20
2017-09-13T03:36:06.902Z,13.22
2017-09-13T03:37:06.726Z,13.43
2017-09-13T03:38:06.776Z,13.56
2017-09-13T03:39:06.822Z,13.63
2017-09-13T03:40:06.870Z,13.58
2017-09-13T03:41:06.980Z,13.58
2017-09-13T03:42:07.036Z,13.59
2017-09-13T03:43:07.013Z,13.73
2017-09-13T03:44:07.062Z,13.70
2017-09-13T03:45:07.108Z,13.61
2017-09-13T03:46:07.158Z,13.62
2017-09-13T03:47:07.270Z,13.59
2017-09-13T03:48:07.252Z,13.51
2017-09-13T03:49:07.302Z,13.47
2017-09-13T03:50:07.353Z,13.41
2017-09-13T03:51:07.400Z,13.52
2017-09-13T03:52:07.510Z,13.46
2017-09-13T03:53:07.496Z,13.61
2017-09-13T03:54:07.542Z,13.69
2017-09-13T03:55:07.588Z,13.87
2017-09-13T03:56:07.638Z,13.84
2017-09-13T03:57:07.752Z,13.98
2017-09-13T03:58:07.733Z,13.95
2017-09-13T03:59:07.785Z,13.94
2017-09-13T04:00:07.831Z,13.98
2017-09-13T04:01:07.880Z,14.04
2017-09-13T04:02:07.999Z,14.02
2017-09-13T04:03:07.977Z,14.02
2017-09-13T04:04:08.024Z,14.07
2017-09-13T04:05:08.071Z,14.13
2017-09-13T04:06:08.118Z,14.21
2017-09-13T04:07:08.233Z,14.31
2017-09-13T04:08:08.216Z,14.14
2017-09-13T04:09:08.265Z,14.21
2017-09-13T04:10:08.311Z,14.20
2017-09-13T04:11:08.360Z,14.20
2017-09-13T04:12:08.472Z,14.12
2017-09-13T04:13:08.456Z,14.17
2017-09-13T04:14:08.505Z,14.20
2017-09-13T04:15:08.556Z,14.24
2017-09-13T04:16:08.610Z,14.19
2017-09-13T04:17:08.734Z,14.19
2017-09-13T04:18:08.699Z,14.10
2017-09-13T04:19:08.747Z,13.99
2017-09-13T04:20:08.794Z,13.98
2017-09-13T04:21:08.843Z,14.01
2017-09-13T04:22:08.958Z,14.13
2017-09-13T04:23:09.005Z,14.21
2017-09-13T04:24:08.988Z,14.10
2017-09-13T04:25:09.039Z,14.19
2017-09-13T04:26:09.090Z,14.07
2017-09-13T04:27:09.222Z,13.99
2017-09-13T04:28:09.181Z,14.06
2017-09-13T04:29:09.230Z,14.04
2017-09-13T04:30:09.279Z,13.99
2017-09-13T04:31:09.326Z,14.06
2017-09-13T04:32:09.462Z,13.96
2017-09-13T04:33:09.425Z,13.96
2017-09-13T04:34:09.475Z,14.01
2017-09-13T04:35:09.520Z,13.91
2017-09-13T04:36:09.569Z,13.99
2017-09-13T04:37:09.691Z,14.14
2017-09-13T04:38:09.664Z,14.20
2017-09-13T04:39:09.716Z,14.17
2017-09-13T04:40:09.762Z,14.31
2017-09-13T04:41:09.811Z,14.20
2017-09-13T04:42:09.939Z,14.21
2017-09-13T04:43:09.904Z,14.27
2017-09-13T04:44:09.956Z,14.21
2017-09-13T04:45:10.003Z,14.07
2017-09-13T04:46:10.051Z,14.14
2017-09-13T04:47:10.182Z,14.16
2017-09-13T04:48:10.146Z,14.20
2017-09-13T04:49:10.196Z,14.27
2017-09-13T04:50:10.247Z,14.21
2017-09-13T04:51:10.292Z,14.28
2017-09-13T04:52:10.409Z,14.28
2017-09-13T04:53:10.453Z,14.21
2017-09-13T04:54:10.441Z,14.07
2017-09-13T04:55:10.484Z,14.17
2017-09-13T04:56:10.542Z,14.14
2017-09-13T04:57:10.660Z,14.16
2017-09-13T04:58:10.629Z,14.13
2017-09-13T04:59:10.681Z,14.19
2017-09-13T05:00:10.727Z,14.12
2017-09-13T05:01:10.774Z,14.19
2017-09-13T05:02:10.890Z,14.09
2017-09-13T05:03:10.935Z,14.04
2017-09-13T05:04:10.924Z,14.07
2017-09-13T05:05:10.976Z,13.94
2017-09-13T05:06:11.019Z,13.87
2017-09-13T05:07:11.066Z,13.87
2017-09-13T05:08:11.178Z,13.89
2017-09-13T05:09:11.167Z,13.91
2017-09-13T05:10:11.213Z,13.81
2017-09-13T05:11:11.259Z,13.71
2017-09-13T05:12:11.305Z,13.65
2017-09-13T05:13:11.424Z,13.62
2017-09-13T05:14:11.404Z,13.58
2017-09-13T05:15:11.453Z,13.51
2017-09-13T05:16:11.500Z,13.44
2017-09-13T05:17:11.549Z,13.33
2017-09-13T05:18:11.682Z,13.33
2017-09-13T05:19:11.647Z,13.18
2017-09-13T05:20:11.693Z,13.17
2017-09-13T05:21:11.747Z,13.09
2017-09-13T05:22:11.799Z,13.06
2017-09-13T05:23:11.922Z,13.06
2017-09-13T05:24:11.887Z,13.11
2017-09-13T05:25:11.933Z,13.03
2017-09-13T05:26:11.985Z,12.95
2017-09-13T05:27:12.034Z,13.02
2017-09-13T05:28:12.162Z,12.93
2017-09-13T05:29:12.127Z,13.07
2017-09-13T05:30:12.173Z,12.92
2017-09-13T05:31:12.222Z,12.92
2017-09-13T05:32:12.272Z,13.06
2017-09-13T05:33:12.387Z,13.18
2017-09-13T05:34:12.433Z,13.27
2017-09-13T05:35:12.415Z,13.36
2017-09-13T05:36:12.468Z,13.47
2017-09-13T05:37:12.517Z,13.47
2017-09-13T05:38:12.560Z,13.55
2017-09-13T05:39:12.675Z,13.59
2017-09-13T05:40:12.656Z,13.69
2017-09-13T05:41:12.708Z,13.71
2017-09-13T05:42:12.750Z,13.69
2017-09-13T05:43:12.800Z,13.71
2017-09-13T05:44:12.916Z,13.70
2017-09-13T05:45:12.904Z,13.73
2017-09-13T05:46:12.947Z,13.71
2017-09-13T05:47:12.994Z,13.79
2017-09-13T05:48:13.046Z,13.80
2017-09-13T05:49:13.161Z,13.92
2017-09-13T05:50:13.135Z,13.92
2017-09-13T05:51:13.191Z,13.95
2017-09-13T05:52:13.236Z,13.91
2017-09-13T05:53:13.283Z,13.98
2017-09-13T05:54:13.398Z,13.87
2017-09-13T05:55:13.384Z,13.96
2017-09-13T05:56:13.433Z,14.01
2017-09-13T05:57:13.478Z,14.04
2017-09-13T05:58:13.526Z,14.01
2017-09-13T05:59:13.641Z,14.09
2017-09-13T06:00:13.624Z,14.14
2017-09-13T06:01:13.673Z,14.13
2017-09-13T06:02:13.720Z,14.19
2017-09-13T06:03:13.768Z,14.25
2017-09-13T06:04:13.881Z,14.21
2017-09-13T06:05:13.867Z,14.25
2017-09-13T06:06:13.916Z,14.24
2017-09-13T06:07:13.963Z,14.34
2017-09-13T06:08:14.011Z,14.32
2017-09-13T06:09:14.145Z,14.37
2017-09-13T06:10:14.110Z,14.39
2017-09-13T06:11:14.163Z,14.35
2017-09-13T06:12:14.210Z,14.37
2017-09-13T06:13:14.253Z,14.39
2017-09-13T06:14:14.372Z,14.46
2017-09-13T06:15:14.415Z,14.52
2017-09-13T06:16:14.404Z,14.54
2017-09-13T06:17:14.450Z,14.67
2017-09-13T06:18:14.502Z,14.56
2017-09-13T06:19:14.554Z,14.61
2017-09-13T06:20:14.688Z,14.64
2017-09-13T06:21:14.650Z,14.68
2017-09-13T06:22:14.698Z,14.62
2017-09-13T06:23:14.745Z,14.69
2017-09-13T06:24:14.791Z,14.65
2017-09-13T06:25:14.904Z,14.74
2017-09-13T06:26:14.890Z,14.65
2017-09-13T06:27:14.938Z,14.57
2017-09-13T06:28:14.991Z,14.67
2017-09-13T06:29:15.040Z,14.60
2017-09-13T06:30:15.149Z,14.56
2017-09-13T06:31:15.134Z,14.56
2017-09-13T06:32:15.181Z,14.50
2017-09-13T06:33:15.233Z,14.47
2017-09-13T06:34:15.281Z,14.50
2017-09-13T06:35:15.399Z,14.44
2017-09-13T06:36:15.387Z,14.50
2017-09-13T06:37:15.426Z,14.29
2017-09-13T06:38:15.476Z,14.19
2017-09-13T06:39:15.524Z,14.24
2017-09-13T06:40:15.657Z,14.20
2017-09-13T06:41:15.623Z,14.16
2017-09-13T06:42:15.671Z,14.16
2017-09-13T06:43:16.042Z,13.98
2017-09-13T06:44:15.772Z,14.01
2017-09-13T06:45:15.882Z,13.94
2017-09-13T06:46:15.935Z,13.83
2017-09-13T06:47:15.914Z,13.89
2017-09-13T06:48:15.966Z,13.88
2017-09-13T06:49:16.012Z,13.83
2017-09-13T06:50:16.062Z,13.87
2017-09-13T06:51:16.198Z,13.81
2017-09-13T06:52:16.159Z,13.73
2017-09-13T06:53:16.209Z,13.79
2017-09-13T06:54:16.258Z,13.71
2017-09-13T06:55:16.308Z,13.80
2017-09-13T06:56:16.447Z,13.84
2017-09-13T06:57:16.405Z,13.79
2017-09-13T06:58:16.452Z,13.88
2017-09-13T06:59:16.500Z,13.77
2017-09-13T07:00:16.552Z,13.84
2017-09-13T07:01:16.667Z,13.84
2017-09-13T07:02:16.711Z,13.83
2017-09-13T07:03:16.700Z,13.81
2017-09-13T07:04:16.754Z,13.83
2017-09-13T07:05:16.795Z,13.80
2017-09-13T07:06:16.842Z,13.83
2017-09-13T07:07:16.954Z,13.87
2017-09-13T07:08:16.945Z,13.88
2017-09-13T07:09:16.992Z,13.83
2017-09-13T07:10:17.041Z,13.83
2017-09-13T07:11:17.089Z,13.94
2017-09-13T07:12:17.202Z,14.04
2017-09-13T07:13:17.184Z,14.07
2017-09-13T07:14:17.231Z,14.07
2017-09-13T07:15:17.289Z,14.16
2017-09-13T07:16:17.332Z,14.24
2017-09-13T07:17:17.445Z,14.17
2017-09-13T07:18:17.431Z,14.24
2017-09-13T07:19:17.476Z,14.29
2017-09-13T07:20:17.528Z,14.21
2017-09-13T07:21:17.578Z,14.24
2017-09-13T07:22:17.706Z,14.25
2017-09-13T07:23:17.674Z,14.21
2017-09-13T07:24:17.722Z,14.32
2017-09-13T07:25:17.771Z,14.24
2017-09-13T07:26:17.822Z,14.43
2017-09-13T07:27:17.941Z,14.44
2017-09-13T07:28:17.916Z,14.47
2017-09-13T07:29:17.970Z,14.52
2017-09-13T07:30:18.014Z,14.56
2017-09-13T07:31:18.062Z,14.56
2017-09-13T07:32:18.202Z,14.52
2017-09-13T07:33:18.161Z,14.61
2017-09-13T07:34:18.210Z,14.57
2017-09-13T07:35:18.260Z,14.65
2017-09-13T07:36:18.308Z,14.60
2017-09-13T07:37:18.442Z,14.64
2017-09-13T07:38:18.409Z,14.56
2017-09-13T07:39:18.455Z,14.68
2017-09-13T07:40:18.507Z,14.74
2017-09-13T07:41:18.557Z,14.75
2017-09-13T07:42:18.693Z,14.80
2017-09-13T07:43:18.654Z,14.84
2017-09-13T07:44:18.711Z,14.90
2017-09-13T07:45:18.754Z,14.98
2017-09-13T07:46:18.801Z,14.95
2017-09-13T07:47:18.914Z,14.99
2017-09-13T07:48:18.963Z,15.02
2017-09-13T07:49:18.948Z,14.99
2017-09-13T07:50:18.998Z,15.03
2017-09-13T07:51:19.047Z,14.88
2017-09-13T07:52:19.096Z,14.91
2017-09-13T07:53:19.211Z,14.90
2017-09-13T07:54:19.194Z,15.02
2017-09-13T07:55:19.246Z,15.01
2017-09-13T07:56:19.295Z,15.05
2017-09-13T07:57:19.344Z,14.95
2017-09-13T07:58:19.485Z,14.91
2017-09-13T07:59:19.442Z,14.88
2017-09-13T08:00:19.494Z,14.86
2017-09-13T08:01:19.543Z,14.72
2017-09-13T08:02:19.592Z,14.74
2017-09-13T08:03:19.718Z,14.75
2017-09-13T08:04:19.693Z,14.75
2017-09-13T08:05:19.740Z,14.71
2017-09-13T08:06:19.791Z,14.74
2017-09-13T08:07:19.843Z,14.72
2017-09-13T08:08:19.974Z,14.72
2017-09-13T08:09:19.938Z,14.72
2017-09-13T08:10:19.987Z,14.69
2017-09-13T08:11:20.042Z,14.67
2017-09-13T08:12:20.085Z,14.61
2017-09-13T08:13:20.230Z,14.56
2017-09-13T08:14:20.183Z,14.49
2017-09-13T08:15:20.235Z,14.56
2017-09-13T08:16:20.287Z,14.49
2017-09-13T08:17:20.333Z,14.44
2017-09-13T08:18:20.464Z,14.53
2017-09-13T08:19:20.432Z,14.50
2017-09-13T08:20:20.483Z,14.47
2017-09-13T08:21:20.530Z,14.52
2017-09-13T08:22:20.578Z,14.52
2017-09-13T08:23:20.711Z,14.50
2017-09-13T08:24:20.679Z,14.52
2017-09-13T08:25:20.729Z,14.57
2017-09-13T08:26:20.776Z,14.57
2017-09-13T08:27:20.830Z,14.53
2017-09-13T08:28:20.961Z,14.62
2017-09-13T08:29:20.924Z,14.60
2017-09-13T08:30:20.975Z,14.60
2017-09-13T08:31:21.029Z,14.62
2017-09-13T08:32:21.075Z,14.65
2017-09-13T08:33:21.204Z,14.64
2017-09-13T08:34:21.169Z,14.68
2017-09-13T08:35:21.224Z,14.65
2017-09-13T08:36:21.271Z,14.65
2017-09-13T08:37:21.320Z,14.74
2017-09-13T08:38:21.436Z,14.75
2017-09-13T08:39:21.482Z,14.78
2017-09-13T08:40:21.469Z,14.69
2017-09-13T08:41:21.519Z,14.67
2017-09-13T08:42:21.565Z,14.61
2017-09-13T08:43:21.686Z,14.65
2017-09-13T08:44:21.733Z,14.65
2017-09-13T08:45:21.715Z,14.61
2017-09-13T08:46:21.764Z,14.60
2017-09-13T08:47:21.816Z,14.62
2017-09-13T08:48:21.862Z,14.68
2017-09-13T08:49:21.978Z,14.65
2017-09-13T08:50:21.960Z,14.65
2017-09-13T08:51:22.015Z,14.65
2017-09-13T08:52:22.061Z,14.62
2017-09-13T08:53:22.110Z,14.56
2017-09-13T08:54:22.227Z,14.56
2017-09-13T08:55:22.208Z,14.56
2017-09-13T08:56:22.263Z,14.53
2017-09-13T08:57:22.333Z,14.54
2017-09-13T08:58:22.377Z,14.52
2017-09-13T08:59:23.284Z,14.56
2017-09-13T09:00:22.494Z,14.53
2017-09-13T09:01:22.816Z,14.49
2017-09-13T09:02:22.560Z,14.46
2017-09-13T09:03:22.603Z,14.39
2017-09-13T09:04:22.727Z,14.52
2017-09-13T09:05:22.702Z,14.44
2017-09-13T09:06:22.753Z,14.47
2017-09-13T09:07:22.803Z,14.43
2017-09-13T09:08:22.851Z,14.52
2017-09-13T09:09:22.988Z,14.57
2017-09-13T09:10:22.950Z,14.60
2017-09-13T09:11:22.999Z,14.49
2017-09-13T09:12:23.054Z,14.57
2017-09-13T09:13:23.100Z,14.60
2017-09-13T09:14:23.210Z,14.60
2017-09-13T09:15:23.261Z,14.67
2017-09-13T09:16:23.247Z,14.65
2017-09-13T09:17:23.298Z,14.64
2017-09-13T09:18:23.345Z,14.57
2017-09-13T09:19:23.394Z,14.65
2017-09-13T09:20:23.509Z,14.54
2017-09-13T09:21:23.492Z,14.69
2017-09-13T09:22:23.541Z,14.61
2017-09-13T09:23:23.590Z,14.57
2017-09-13T09:24:23.639Z,14.49
2017-09-13T09:25:23.755Z,14.54
2017-09-13T09:26:23.742Z,14.47
2017-09-13T09:27:23.812Z,14.46
2017-09-13T09:28:23.839Z,14.54
2017-09-13T09:29:23.888Z,14.56
2017-09-13T09:30:24.005Z,14.62
2017-09-13T09:31:23.988Z,14.53
2017-09-13T09:32:24.037Z,14.57
2017-09-13T09:33:24.086Z,14.57
2017-09-13T09:34:24.132Z,14.61
2017-09-13T09:35:24.264Z,14.67
2017-09-13T09:36:24.236Z,14.64
2017-09-13T09:37:24.283Z,14.62
2017-09-13T09:38:24.334Z,14.67
2017-09-13T09:39:24.383Z,14.74
2017-09-13T09:40:24.522Z,14.80
2017-09-13T09:41:24.484Z,14.74
2017-09-13T09:42:24.531Z,14.65
2017-09-13T09:43:24.753Z,14.56
2017-09-13T09:44:25.413Z,14.56
2017-09-13T09:45:25.539Z,14.56
2017-09-13T09:46:27.227Z,14.56
2017-09-13T09:47:27.148Z,14.56
2017-09-13T09:48:25.547Z,14.62
2017-09-13T09:49:28.509Z,14.71
2017-09-13T09:50:27.676Z,14.72
2017-09-13T09:51:37.141Z,14.83
2017-09-13T09:52:32.868Z,14.88
2017-09-13T09:53:37.324Z,14.88
2017-09-13T09:54:37.680Z,14.86
2017-09-13T09:55:35.363Z,14.91
2017-09-13T09:56:36.186Z,14.84
2017-09-13T09:57:34.883Z,14.81
2017-09-13T09:58:32.774Z,14.72
2017-09-13T09:59:26.767Z,14.81
2017-09-13T10:00:26.060Z,14.69
2017-09-13T10:01:25.535Z,14.78
2017-09-13T10:02:25.519Z,14.72
2017-09-13T10:03:25.569Z,14.71
2017-09-13T10:04:25.618Z,14.75
2017-09-13T10:05:25.966Z,14.69
2017-09-13T10:06:25.793Z,14.83
2017-09-13T10:07:25.783Z,14.71
2017-09-13T10:08:25.817Z,14.81
2017-09-13T10:09:28.540Z,14.80
2017-09-13T10:10:25.915Z,14.87
2017-09-13T10:11:27.779Z,14.94
2017-09-13T10:12:27.849Z,14.87
2017-09-13T10:13:28.180Z,14.88
2017-09-13T10:14:26.768Z,14.98
2017-09-13T10:15:27.875Z,14.99
2017-09-13T10:16:27.838Z,14.99
2017-09-13T10:17:26.343Z,15.06
2017-09-13T10:18:26.320Z,15.05
2017-09-13T10:19:26.421Z,15.08
2017-09-13T10:20:26.420Z,15.01
2017-09-13T10:21:27.176Z,15.06
2017-09-13T10:22:28.181Z,15.08
2017-09-13T10:23:26.626Z,14.95
2017-09-13T10:24:26.610Z,15.03
2017-09-13T10:25:27.181Z,15.02
2017-09-13T10:26:28.168Z,14.93
2017-09-13T10:27:28.546Z,14.91
2017-09-13T10:28:27.901Z,15.05
2017-09-13T10:29:27.931Z,14.98
2017-09-13T10:30:29.518Z,14.90
2017-09-13T10:31:27.733Z,14.94
2017-09-13T10:32:28.430Z,14.93
2017-09-13T10:33:28.811Z,14.94
2017-09-13T10:34:28.510Z,14.87
2017-09-13T10:35:27.539Z,14.93
2017-09-13T10:36:27.970Z,14.99
2017-09-13T10:37:27.253Z,15.01
2017-09-13T10:38:27.368Z,14.95
2017-09-13T10:39:27.354Z,14.93
2017-09-13T10:40:27.403Z,14.99
2017-09-13T10:41:27.728Z,14.93
2017-09-13T10:42:27.504Z,15.03
2017-09-13T10:43:27.619Z,15.05
2017-09-13T10:44:27.600Z,15.11
2017-09-13T10:45:27.651Z,15.11
2017-09-13T10:46:27.703Z,15.13
2017-09-13T10:47:27.749Z,15.21
2017-09-13T10:48:27.877Z,15.21
2017-09-13T10:49:27.852Z,15.26
2017-09-13T10:50:27.896Z,15.23
2017-09-13T10:51:27.948Z,15.28
2017-09-13T10:52:27.997Z,15.20
2017-09-13T10:53:28.131Z,15.23
2017-09-13T10:54:28.095Z,15.09
2017-09-13T10:55:28.149Z,15.11
2017-09-13T10:56:28.194Z,15.11
2017-09-13T10:57:28.245Z,15.20
2017-09-13T10:58:28.358Z,15.19
2017-09-13T10:59:28.409Z,15.24
2017-09-13T11:00:28.393Z,15.23
2017-09-13T11:01:28.442Z,15.35
2017-09-13T11:02:28.491Z,15.35
2017-09-13T11:03:28.545Z,15.33
2017-09-13T11:04:28.658Z,15.31
2017-09-13T11:05:28.641Z,15.39
2017-09-13T11:06:28.692Z,15.51
2017-09-13T11:07:28.745Z,15.49
2017-09-13T11:08:28.787Z,15.60
2017-09-13T11:09:28.903Z,15.51
2017-09-13T11:10:28.886Z,15.52
2017-09-13T11:11:28.949Z,15.61
2017-09-13T11:12:28.987Z,15.59
2017-09-13T11:13:29.039Z,15.59
2017-09-13T11:14:29.156Z,15.56
2017-09-13T11:15:29.136Z,15.67
2017-09-13T11:16:29.185Z,15.70
2017-09-13T11:17:29.237Z,15.66
2017-09-13T11:18:29.287Z,15.66
2017-09-13T11:19:29.402Z,15.72
2017-09-13T11:20:29.386Z,15.66
2017-09-13T11:21:29.434Z,15.60
2017-09-13T11:22:29.486Z,15.59
2017-09-13T11:23:29.540Z,15.57
2017-09-13T11:24:30.024Z,15.60
2017-09-13T11:25:29.635Z,15.51
2017-09-13T11:26:29.685Z,15.51
2017-09-13T11:27:29.733Z,15.45
2017-09-13T11:28:29.783Z,15.41
2017-09-13T11:29:29.909Z,15.36
2017-09-13T11:30:29.880Z,15.33
2017-09-13T11:31:29.936Z,15.35
2017-09-13T11:32:29.979Z,15.39
2017-09-13T11:33:30.031Z,15.31
2017-09-13T11:34:30.159Z,15.33
2017-09-13T11:35:30.140Z,15.23
2017-09-13T11:36:30.180Z,15.13
2017-09-13T11:37:30.229Z,15.19
2017-09-13T11:38:30.279Z,15.19
2017-09-13T11:39:30.415Z,15.23
2017-09-13T11:40:30.380Z,15.23
2017-09-13T11:41:30.428Z,15.35
2017-09-13T11:42:30.477Z,15.59
2017-09-13T11:43:30.530Z,15.66
2017-09-13T11:44:30.658Z,15.68
2017-09-13T11:45:30.630Z,15.75
2017-09-13T11:46:30.679Z,15.70
2017-09-13T11:47:30.731Z,15.76
2017-09-13T11:48:30.783Z,15.68
2017-09-13T11:49:30.914Z,15.72
2017-09-13T11:50:30.875Z,15.79
2017-09-13T11:51:30.931Z,15.85
2017-09-13T11:52:30.976Z,15.75
2017-09-13T11:53:31.034Z,15.76
2017-09-13T11:54:31.147Z,15.78
2017-09-13T11:55:31.196Z,15.79
2017-09-13T11:56:31.175Z,15.75
2017-09-13T11:57:31.230Z,15.84
2017-09-13T11:58:31.277Z,15.84
2017-09-13T11:59:31.328Z,15.84
2017-09-13T12:00:31.462Z,15.92
2017-09-13T12:01:31.423Z,15.94
2017-09-13T12:02:31.477Z,15.94
2017-09-13T12:03:31.527Z,15.92
2017-09-13T12:04:31.581Z,15.97
2017-09-13T12:05:31.699Z,15.97
2017-09-13T12:06:31.674Z,15.94
2017-09-13T12:07:31.763Z,16.00
2017-09-13T12:08:31.775Z,16.03
2017-09-13T12:09:31.831Z,16.03
2017-09-13T12:10:31.939Z,16.03
2017-09-13T12:11:31.988Z,16.07
2017-09-13T12:12:31.977Z,16.04
2017-09-13T12:13:32.025Z,16.04
2017-09-13T12:14:32.075Z,16.04
2017-09-13T12:15:32.958Z,16.09
2017-09-13T12:16:32.242Z,16.06
2017-09-13T12:17:32.224Z,16.06
2017-09-13T12:18:32.276Z,15.99
2017-09-13T12:19:32.325Z,16.00
2017-09-13T12:20:32.374Z,16.07
2017-09-13T12:21:32.489Z,16.01
2017-09-13T12:22:32.477Z,16.15
2017-09-13T12:23:32.524Z,16.15
2017-09-13T12:24:32.578Z,16.16
2017-09-13T12:25:32.627Z,16.23
2017-09-13T12:26:32.751Z,16.22
2017-09-13T12:27:32.725Z,16.30
2017-09-13T12:28:32.774Z,16.33
2017-09-13T12:29:32.835Z,16.30
2017-09-13T12:30:32.878Z,16.41
2017-09-13T12:31:32.996Z,16.45
2017-09-13T12:32:33.043Z,16.37
2017-09-13T12:33:33.033Z,16.38
2017-09-13T12:34:33.074Z,16.44
2017-09-13T12:35:33.129Z,16.41
2017-09-13T12:36:33.178Z,16.44
2017-09-13T12:37:33.293Z,16.44
2017-09-13T12:38:33.288Z,16.41
2017-09-13T12:39:33.325Z,16.45
2017-09-13T12:40:33.377Z,16.41
2017-09-13T12:41:33.428Z,16.48
2017-09-13T12:42:33.544Z,16.42
2017-09-13T12:43:33.529Z,16.41
2017-09-13T12:44:33.578Z,16.41
2017-09-13T12:45:33.627Z,16.41
2017-09-13T12:46:33.676Z,16.48
2017-09-13T12:47:33.815Z,16.55
2017-09-13T12:48:33.777Z,16.53
2017-09-13T12:49:33.832Z,16.41
2017-09-13T12:50:33.878Z,16.60
2017-09-13T12:51:33.926Z,16.55
2017-09-13T12:52:34.053Z,16.52
2017-09-13T12:53:34.091Z,16.53